Time;durP1;ratioP1;P1;durP2;ratioP2;P2;SDS_P1;SDS_P2;PMS_P1;PMS_P2;Temp;Humidity;BMP_temperature;BMP_pressure;BME280_temperature;BME280_humidity;BME280_pressure;Samples;Min_cycle;Max_cycle;Signal;HPM_P1;HPM_P2
2022/11/10 00:02:14;;;;;;;6.10;5.70;;;15.20;47.80;;;;;;10379785;28;20975;-69
2022/11/10 00:07:19;;;;;;;6.30;5.80;;;15.20;47.90;;;;;;10380131;28;20291;-69
2022/11/10 00:12:22;;;;;;;6.17;5.67;;;15.20;48.20;;;;;;10382646;28;20291;-69
2022/11/10 00:17:26;;;;;;;5.93;5.40;;;15.20;47.90;;;;;;10383260;28;20279;-69
2022/11/10 00:22:31;;;;;;;5.60;5.13;;;15.20;47.70;;;;;;10387515;28;20242;-69
2022/11/10 00:27:34;;;;;;;5.07;4.67;;;15.20;48.10;;;;;;10382374;28;20233;-73
2022/11/10 00:32:37;;;;;;;5.13;4.70;;;15.20;47.70;;;;;;10381396;28;20230;-73
2022/11/10 00:37:41;;;;;;;5.10;4.70;;;15.20;47.70;;;;;;10384436;28;20886;-73
2022/11/10 00:42:45;;;;;;;5.20;4.80;;;15.20;48.10;;;;;;10382256;28;20237;-73
2022/11/10 00:47:48;;;;;;;5.30;4.90;;;15.30;47.80;;;;;;10383242;28;20709;-73
2022/11/10 00:52:52;;;;;;;5.90;5.40;;;15.30;47.70;;;;;;10382783;28;20749;-74
2022/11/10 00:57:56;;;;;;;4.03;3.73;;;15.30;48.10;;;;;;10379337;28;20218;-69
2022/11/10 01:03:01;;;;;;;3.13;2.90;;;15.30;47.40;;;;;;10380589;28;20234;-69
2022/11/10 01:08:06;;;;;;;3.80;3.20;;;15.20;47.20;;;;;;10382288;28;20733;-69
2022/11/10 01:13:09;;;;;;;2.20;1.93;;;15.10;47.50;;;;;;10381854;28;20238;-69
2022/11/10 01:18:12;;;;;;;2.50;1.90;;;15.00;46.90;;;;;;10382253;28;20280;-70
2022/11/10 01:23:16;;;;;;;2.23;1.40;;;14.90;46.90;;;;;;10382321;28;20229;-70
2022/11/10 01:28:20;;;;;;;1.27;1.07;;;14.90;47.30;;;;;;10380781;28;20257;-70
2022/11/10 01:33:23;;;;;;;2.87;1.30;;;14.80;47.00;;;;;;10376173;28;20264;-70
2022/11/10 01:38:29;;;;;;;1.43;1.10;;;14.80;47.00;;;;;;10379692;28;20304;-70
2022/11/10 01:43:33;;;;;;;1.73;1.33;;;14.70;47.30;;;;;;10385124;28;20693;-70
2022/11/10 01:48:43;;;;;;;1.40;1.30;;;14.70;47.00;;;;;;10380668;28;20218;-70
2022/11/10 01:53:53;;;;;;;1.77;1.50;;;14.70;47.60;;;;;;10385617;28;20309;-70
2022/11/10 01:58:59;;;;;;;1.50;1.40;;;14.70;47.70;;;;;;10387623;28;20997;-70
2022/11/10 02:04:06;;;;;;;2.67;1.30;;;14.60;47.60;;;;;;10383823;28;20226;-70
2022/11/10 02:09:11;;;;;;;2.80;1.40;;;14.60;47.60;;;;;;10387562;28;20232;-70
2022/11/10 02:14:16;;;;;;;1.97;1.37;;;14.60;47.60;;;;;;10385273;28;20237;-70
2022/11/10 02:19:21;;;;;;;2.30;1.30;;;14.70;47.60;;;;;;10407476;28;20232;-70
2022/11/10 02:24:25;;;;;;;1.50;1.30;;;14.70;47.40;;;;;;10388187;28;20242;-70
2022/11/10 02:29:28;;;;;;;1.63;1.53;;;14.70;47.50;;;;;;10392589;28;20237;-73
2022/11/10 02:34:32;;;;;;;2.03;1.80;;;14.60;47.30;;;;;;10385951;28;20222;-74
2022/11/10 02:39:36;;;;;;;2.50;1.60;;;14.60;47.40;;;;;;10386803;28;20284;-73
2022/11/10 02:44:40;;;;;;;2.13;1.77;;;14.60;47.60;;;;;;10384942;28;20860;-74
2022/11/10 02:49:43;;;;;;;1.73;1.60;;;14.60;47.50;;;;;;10382836;28;20230;-73
2022/11/10 02:54:48;;;;;;;2.03;1.70;;;14.60;47.60;;;;;;10384312;28;20230;-73
2022/11/10 02:59:51;;;;;;;2.23;1.70;;;14.60;47.90;;;;;;10386448;28;20649;-74
2022/11/10 03:04:54;;;;;;;1.93;1.57;;;14.60;47.60;;;;;;10383206;28;20273;-73
2022/11/10 03:09:59;;;;;;;2.47;1.50;;;14.70;47.60;;;;;;10384858;28;20725;-74
2022/11/10 03:15:02;;;;;;;2.40;1.43;;;14.70;47.80;;;;;;10384022;28;20233;-73
2022/11/10 03:20:06;;;;;;;2.33;1.50;;;14.60;47.60;;;;;;10385977;28;20240;-73
2022/11/10 03:25:11;;;;;;;2.37;1.43;;;14.60;47.60;;;;;;10383796;28;20236;-73
2022/11/10 03:30:15;;;;;;;1.47;1.37;;;14.60;47.90;;;;;;10386890;28;20228;-73
2022/11/10 03:35:18;;;;;;;1.80;1.37;;;14.60;47.60;;;;;;10389362;28;20236;-73
2022/11/10 03:40:22;;;;;;;1.20;1.20;;;14.60;47.60;;;;;;10381976;28;20234;-74
2022/11/10 03:45:26;;;;;;;2.17;1.40;;;14.60;48.10;;;;;;10381395;28;20227;-70
2022/11/10 03:50:29;;;;;;;2.33;1.60;;;14.60;47.80;;;;;;10384075;28;20247;-70
2022/11/10 03:55:33;;;;;;;2.00;1.50;;;14.60;47.90;;;;;;10386961;28;20698;-69
2022/11/10 04:00:36;;;;;;;2.10;1.60;;;14.60;48.10;;;;;;10377923;28;20236;-69
2022/11/10 04:11:02;;;;;;;3.00;2.00;;;14.60;47.60;;;;;;10386385;28;20225;-73
2022/11/10 04:16:05;;;;;;;2.50;2.30;;;14.60;47.90;;;;;;10380560;28;20218;-73
2022/11/10 04:21:08;;;;;;;3.03;2.13;;;14.60;47.70;;;;;;10378892;28;20286;-73
2022/11/10 04:31:42;;;;;;;5.07;2.40;;;14.50;48.00;;;;;;10372628;28;20227;-69
2022/11/10 04:36:45;;;;;;;2.50;2.30;;;14.50;47.80;;;;;;10382817;28;20230;-73
2022/11/10 04:41:49;;;;;;;2.57;2.37;;;14.50;47.70;;;;;;10380292;28;20925;-74
2022/11/10 04:46:52;;;;;;;3.40;2.10;;;14.40;48.00;;;;;;10381109;28;20737;-74
2022/11/10 04:51:56;;;;;;;2.77;2.17;;;14.40;47.70;;;;;;10376813;28;20226;-74
2022/11/10 04:57:00;;;;;;;2.60;2.17;;;14.40;47.90;;;;;;10383420;28;20301;-69
2022/11/10 05:02:03;;;;;;;2.33;2.13;;;14.40;48.20;;;;;;10384536;28;20216;-69
2022/11/10 05:07:06;;;;;;;2.90;2.60;;;14.40;47.90;;;;;;10378269;28;20233;-70
2022/11/10 05:12:11;;;;;;;2.83;2.50;;;14.40;47.70;;;;;;10381396;28;20295;-70
2022/11/10 05:17:14;;;;;;;4.47;2.80;;;14.40;47.70;;;;;;10377436;28;20232;-70
2022/11/10 05:22:17;;;;;;;3.13;2.70;;;14.30;47.40;;;;;;10379667;28;20861;-71
2022/11/10 05:27:22;;;;;;;2.90;2.70;;;14.30;47.30;;;;;;10371160;28;20234;-73
2022/11/10 05:32:25;;;;;;;2.93;2.30;;;14.20;47.50;;;;;;10377997;28;20247;-73
2022/11/10 05:37:28;;;;;;;2.87;2.67;;;14.10;47.20;;;;;;10379154;28;20241;-73
2022/11/10 05:42:33;;;;;;;2.97;2.67;;;14.10;47.10;;;;;;10382300;28;20738;-69
2022/11/10 05:47:36;;;;;;;3.10;2.80;;;14.10;47.20;;;;;;10387373;28;20222;-69
2022/11/10 05:52:42;;;;;;;2.60;2.40;;;14.00;46.80;;;;;;10376288;28;20236;-69
2022/11/10 05:57:54;;;;;;;2.60;2.40;;;14.00;46.90;;;;;;10376381;28;20229;-70
2022/11/10 06:02:59;;;;;;;2.77;2.50;;;13.90;46.60;;;;;;10374679;28;20230;-70
2022/11/10 06:08:04;;;;;;;5.13;3.80;;;13.90;46.30;;;;;;10380393;28;20218;-71
2022/11/10 06:13:09;;;;;;;3.33;3.03;;;13.80;46.80;;;;;;10382450;28;20283;-70
2022/11/10 06:18:12;;;;;;;5.17;3.80;;;13.70;46.90;;;;;;10376897;28;20227;-70
2022/11/10 06:23:15;;;;;;;3.93;3.50;;;13.70;47.00;;;;;;10377788;28;20222;-69
2022/11/10 06:28:20;;;;;;;5.30;4.30;;;13.60;46.80;;;;;;10377690;28;20244;-74
2022/11/10 06:33:23;;;;;;;3.43;3.13;;;13.60;46.50;;;;;;10374001;28;20226;-69
2022/11/10 06:38:27;;;;;;;23.17;3.80;;;13.50;46.20;;;;;;10377424;28;20240;-68
2022/11/10 06:43:31;;;;;;;3.40;3.10;;;13.40;46.20;;;;;;10386238;28;20232;-69
2022/11/10 06:48:35;;;;;;;3.90;3.00;;;13.30;46.50;;;;;;10386225;28;20226;-69
2022/11/10 06:53:38;;;;;;;5.30;3.23;;;13.20;46.40;;;;;;10387147;28;20225;-69
2022/11/10 06:58:42;;;;;;;4.07;3.00;;;13.10;46.30;;;;;;10380164;28;20218;-68
2022/11/10 07:03:45;;;;;;;2.73;2.53;;;13.00;46.30;;;;;;10387862;28;20222;-70
2022/11/10 07:09:09;;;;;;;3.33;3.00;;;12.90;46.30;;;;;;10390061;28;20230;-71
2022/11/10 07:14:13;;;;;;;3.73;3.40;;;12.90;46.50;;;;;;10393321;28;20237;-72
2022/11/10 07:19:16;;;;;;;3.73;3.43;;;12.80;46.70;;;;;;10381469;28;20226;-68
2022/11/10 07:24:20;;;;;;;3.93;3.30;;;12.70;46.80;;;;;;10381877;28;20895;-71
2022/11/10 07:29:24;;;;;;;3.40;3.20;;;12.70;47.10;;;;;;10380029;28;20240;-68
2022/11/10 07:34:27;;;;;;;3.53;3.23;;;12.60;47.70;;;;;;10380428;28;20233;-68
2022/11/10 07:39:30;;;;;;;5.00;4.50;;;12.60;47.80;;;;;;10388674;28;20272;-68
2022/11/10 07:44:35;;;;;;;5.53;4.30;;;12.70;48.20;;;;;;10383162;28;20225;-70
2022/11/10 07:49:38;;;;;;;4.83;4.17;;;12.80;49.10;;;;;;10381048;28;20225;-70
2022/11/10 07:54:41;;;;;;;3.43;3.10;;;12.90;49.10;;;;;;10376830;28;20234;-69
2022/11/10 07:59:46;;;;;;;4.13;3.40;;;13.10;49.60;;;;;;10377792;28;20226;-70
2022/11/10 08:04:49;;;;;;;4.53;4.10;;;13.20;50.40;;;;;;10378690;28;20232;-70
2022/11/10 08:09:52;;;;;;;4.17;3.87;;;13.50;50.10;;;;;;10377386;28;20225;-72
2022/11/10 08:14:56;;;;;;;6.27;3.53;;;13.70;50.50;;;;;;10382962;28;20234;-71
2022/11/10 08:20:00;;;;;;;4.47;3.20;;;14.00;50.90;;;;;;10381321;28;20230;-69
2022/11/10 08:25:03;;;;;;;4.70;3.10;;;14.20;50.40;;;;;;10374307;28;20233;-69
2022/11/10 08:30:08;;;;;;;3.33;3.03;;;14.50;49.90;;;;;;10384781;28;20284;-69
2022/11/10 08:35:12;;;;;;;3.60;2.67;;;14.60;49.90;;;;;;10382258;28;20226;-69
2022/11/10 08:40:16;;;;;;;6.57;5.00;;;14.70;49.40;;;;;;10385358;28;20233;-69
2022/11/10 08:45:20;;;;;;;4.50;3.63;;;14.80;49.90;;;;;;10383282;28;21026;-69
2022/11/10 08:50:24;;;;;;;4.17;3.03;;;14.90;49.20;;;;;;10375997;28;20217;-69
2022/11/10 08:55:27;;;;;;;4.33;3.63;;;14.90;49.10;;;;;;10381274;28;20234;-71
2022/11/10 09:00:32;;;;;;;2.87;2.67;;;15.00;49.20;;;;;;10385838;28;20221;-70
2022/11/10 09:05:36;;;;;;;4.40;3.70;;;15.10;48.90;;;;;;10375325;28;20868;-70
2022/11/10 09:10:41;;;;;;;8.13;5.33;;;15.30;48.90;;;;;;10379597;28;20229;-74
2022/11/10 09:15:46;;;;;;;6.43;5.10;;;15.30;48.60;;;;;;10377097;28;20776;-70
2022/11/10 09:20:49;;;;;;;5.87;3.60;;;15.40;48.30;;;;;;10378141;28;20765;-71
2022/11/10 09:25:55;;;;;;;3.07;2.77;;;15.50;47.90;;;;;;10382414;28;20749;-72
2022/11/10 09:31:00;;;;;;;3.43;2.40;;;15.50;48.10;;;;;;10375214;28;20230;-70
2022/11/10 09:36:03;;;;;;;5.23;2.40;;;15.50;47.80;;;;;;10378833;28;20713;-70
2022/11/10 09:41:09;;;;;;;3.10;2.20;;;15.50;47.80;;;;;;10376314;28;20231;-70
2022/11/10 09:46:18;;;;;;;4.90;2.80;;;15.60;48.40;;;;;;10376329;28;20226;-69
2022/11/10 09:51:25;;;;;;;3.40;1.90;;;15.70;48.20;;;;;;10374366;28;20230;-70
2022/11/10 09:56:32;;;;;;;3.43;1.80;;;15.80;46.70;;;;;;10373428;28;20238;-70
2022/11/10 10:01:45;;;;;;;3.17;1.60;;;15.80;46.10;;;;;;10372118;28;20220;-70
2022/11/10 10:06:56;;;;;;;4.33;1.97;;;15.70;45.90;;;;;;10369346;28;20329;-70
2022/11/10 10:12:23;;;;;;;1.97;1.70;;;15.70;46.40;;;;;;10372450;28;20220;-70
2022/11/10 10:17:34;;;;;;;5.43;2.03;;;15.70;46.00;;;;;;10375782;28;20232;-70
2022/11/10 10:22:57;;;;;;;4.00;2.87;;;15.70;46.30;;;;;;10378967;28;20234;-70
2022/11/10 10:28:07;;;;;;;4.57;2.20;;;15.70;46.80;;;;;;10374198;28;21039;-71
2022/11/10 10:33:28;;;;;;;2.77;1.90;;;15.80;46.00;;;;;;10357097;28;20279;-68
2022/11/10 10:38:36;;;;;;;3.63;1.90;;;15.90;46.00;;;;;;10363335;28;20225;-69
2022/11/10 10:43:41;;;;;;;4.20;2.47;;;16.10;45.70;;;;;;10364977;28;20233;-69
2022/11/10 10:48:46;;;;;;;4.30;2.23;;;16.20;46.70;;;;;;10362106;28;20931;-68
2022/11/10 10:53:55;;;;;;;2.47;1.70;;;16.30;46.10;;;;;;10359741;28;20227;-68
2022/11/10 10:59:02;;;;;;;3.17;1.50;;;16.40;45.60;;;;;;10362351;28;21125;-68
2022/11/10 11:04:27;;;;;;;2.67;1.70;;;16.40;44.30;;;;;;10358563;28;20226;-68
2022/11/10 11:09:38;;;;;;;3.17;1.50;;;16.40;44.00;;;;;;10355476;28;20225;-68
2022/11/10 11:14:41;;;;;;;4.20;1.47;;;16.50;44.50;;;;;;10356187;28;20226;-71
2022/11/10 11:19:51;;;;;;;3.30;1.67;;;16.50;44.60;;;;;;10362821;28;20309;-71
2022/11/10 11:25:16;;;;;;;2.30;1.30;;;16.50;43.50;;;;;;10367808;28;20238;-71
2022/11/10 11:30:20;;;;;;;2.80;1.50;;;16.50;42.70;;;;;;10369653;28;20236;-75
2022/11/10 11:35:33;;;;;;;3.73;1.60;;;16.40;43.70;;;;;;10382461;28;20237;-68
2022/11/10 11:40:46;;;;;;;3.63;1.53;;;16.40;43.20;;;;;;10382350;28;20225;-68
2022/11/10 11:45:55;;;;;;;3.30;1.53;;;16.40;43.80;;;;;;10359952;28;20222;-70
2022/11/10 11:51:09;;;;;;;3.80;1.43;;;16.50;44.40;;;;;;10364534;28;20226;-71
2022/11/10 11:56:22;;;;;;;2.20;1.60;;;16.60;43.70;;;;;;10353665;28;20218;-69
2022/11/10 12:01:43;;;;;;;3.70;1.50;;;16.70;43.40;;;;;;10361900;28;20475;-70
2022/11/10 12:07:01;;;;;;;3.97;1.60;;;16.90;43.80;;;;;;10358254;28;20739;-69
2022/11/10 12:12:30;;;;;;;3.50;1.80;;;17.00;41.80;;;;;;10358860;28;20218;-68
2022/11/10 12:17:42;;;;;;;4.87;1.90;;;17.10;42.50;;;;;;10375361;28;20229;-71
2022/11/10 12:22:55;;;;;;;5.27;1.93;;;17.10;42.90;;;;;;10378360;28;20230;-71
2022/11/10 12:28:05;;;;;;;2.53;1.40;;;17.10;42.90;;;;;;10380034;28;20225;-72
2022/11/10 12:33:16;;;;;;;6.43;1.70;;;17.00;41.70;;;;;;10380375;28;20229;-71
2022/11/10 12:38:26;;;;;;;2.97;1.47;;;16.90;40.80;;;;;;10375452;28;20698;-75
2022/11/10 12:43:35;;;;;;;1.63;1.50;;;16.80;42.00;;;;;;10388808;28;20232;-75
2022/11/10 12:48:48;;;;;;;2.27;1.33;;;16.70;41.50;;;;;;10381899;28;20225;-76
2022/11/10 12:53:54;;;;;;;1.83;1.20;;;16.70;41.70;;;;;;10376426;28;20657;-76
2022/11/10 12:59:22;;;;;;;3.33;1.67;;;16.60;42.60;;;;;;10384858;28;20693;-76
2022/11/10 13:04:25;;;;;;;2.70;1.17;;;16.60;42.30;;;;;;10379298;28;20275;-76
2022/11/10 13:09:31;;;;;;;4.50;1.57;;;16.70;42.90;;;;;;10374881;28;20230;-76
2022/11/10 13:14:35;;;;;;;2.73;1.30;;;16.70;42.20;;;;;;10385764;28;20225;-76
2022/11/10 13:19:52;;;;;;;3.67;1.40;;;16.80;43.00;;;;;;10381384;28;20272;-76
2022/11/10 13:25:29;;;;;;;2.00;1.10;;;16.90;41.70;;;;;;10380667;28;20236;-68
2022/11/10 13:30:44;;;;;;;3.53;1.40;;;16.90;41.50;;;;;;10379201;28;20732;-68
2022/11/10 13:35:53;;;;;;;4.17;1.60;;;16.90;41.10;;;;;;10381550;28;20229;-68
2022/11/10 13:41:13;;;;;;;2.67;1.30;;;17.00;40.80;;;;;;10380611;28;20237;-68
2022/11/10 13:46:19;;;;;;;1.43;1.20;;;17.10;40.70;;;;;;10378437;28;20226;-68
2022/11/10 13:51:36;;;;;;;2.13;1.20;;;17.10;41.20;;;;;;10383956;28;20236;-68
2022/11/10 13:56:54;;;;;;;2.20;1.10;;;17.10;40.10;;;;;;10382844;28;20721;-69
2022/11/10 14:02:31;;;;;;;1.73;1.20;;;17.10;40.50;;;;;;10390187;28;20701;-70
2022/11/10 14:07:39;;;;;;;2.20;1.00;;;17.20;40.40;;;;;;10389408;28;20312;-71
2022/11/10 14:12:49;;;;;;;2.93;1.00;;;17.20;40.20;;;;;;10386771;28;20721;-71
2022/11/10 14:17:55;;;;;;;2.70;1.50;;;17.20;39.40;;;;;;10386882;28;20234;-71
2022/11/10 14:23:04;;;;;;;2.07;1.10;;;17.20;40.80;;;;;;10383402;28;20234;-71
2022/11/10 14:28:24;;;;;;;2.40;1.20;;;17.10;40.70;;;;;;10373591;28;20222;-70
2022/11/10 14:33:28;;;;;;;3.87;1.67;;;17.10;40.00;;;;;;10380817;28;20248;-70
2022/11/10 14:38:35;;;;;;;1.30;1.20;;;17.10;40.80;;;;;;10387069;28;20295;-71
2022/11/10 14:43:39;;;;;;;3.20;1.80;;;17.10;40.60;;;;;;10384919;28;20914;-72
2022/11/10 14:48:42;;;;;;;2.67;1.47;;;17.10;40.80;;;;;;10387854;28;20225;-70
2022/11/10 14:53:50;;;;;;;1.73;1.20;;;17.10;40.80;;;;;;10382631;28;20226;-69
2022/11/10 14:58:53;;;;;;;2.00;1.57;;;17.10;40.30;;;;;;10384640;28;20229;-68
2022/11/10 15:03:57;;;;;;;2.73;1.70;;;17.10;41.10;;;;;;10381732;28;20284;-68
2022/11/10 15:09:12;;;;;;;3.30;2.07;;;17.10;41.20;;;;;;10388917;28;20223;-71
2022/11/10 15:14:56;;;;;;;3.03;2.23;;;17.00;40.40;;;;;;10382687;28;20229;-67
2022/11/10 15:19:59;;;;;;;5.00;4.33;;;17.00;41.20;;;;;;10291596;28;20282;-66
2022/11/10 15:25:10;;;;;;;7.80;7.00;;;16.90;41.50;;;;;;10358601;28;20230;-67
2022/11/10 15:30:22;;;;;;;8.07;7.27;;;16.80;40.50;;;;;;10379035;28;20218;-67
2022/11/10 15:35:29;;;;;;;6.40;5.67;;;16.70;40.40;;;;;;10380950;28;20288;-67
2022/11/10 15:40:43;;;;;;;5.57;3.30;;;16.60;40.70;;;;;;10378965;28;20613;-67
2022/11/10 15:45:49;;;;;;;2.70;2.00;;;16.50;40.50;;;;;;10380741;28;20238;-67
2022/11/10 15:50:54;;;;;;;3.07;1.67;;;16.30;40.60;;;;;;10380725;28;20228;-67
2022/11/10 15:55:59;;;;;;;4.03;2.10;;;16.20;40.90;;;;;;10382281;28;20230;-67
2022/11/10 16:01:02;;;;;;;4.80;2.03;;;16.10;41.00;;;;;;10377814;28;21103;-68
2022/11/10 16:06:06;;;;;;;1.80;1.50;;;16.00;41.40;;;;;;10379632;28;20233;-67
2022/11/10 16:11:16;;;;;;;2.27;1.80;;;15.90;41.40;;;;;;10379935;28;20233;-66
2022/11/10 16:16:21;;;;;;;2.87;1.70;;;15.80;40.90;;;;;;10384723;28;20268;-67
2022/11/10 16:21:26;;;;;;;2.13;1.70;;;15.80;41.20;;;;;;10384204;28;20233;-67
2022/11/10 16:26:30;;;;;;;3.27;2.20;;;15.70;41.20;;;;;;10382404;28;20234;-67
2022/11/10 16:31:34;;;;;;;2.90;2.60;;;15.60;40.80;;;;;;10379513;28;20774;-67
2022/11/10 16:36:37;;;;;;;2.97;2.60;;;15.50;40.90;;;;;;10380212;28;20264;-67
2022/11/10 16:41:42;;;;;;;2.80;2.50;;;15.40;41.00;;;;;;10381460;28;20804;-67
2022/11/10 16:46:49;;;;;;;3.10;2.20;;;15.30;41.00;;;;;;10377690;28;20225;-67
2022/11/10 16:51:52;;;;;;;4.47;3.83;;;15.20;42.40;;;;;;10377722;28;20225;-67
2022/11/10 16:56:57;;;;;;;3.13;2.83;;;15.20;41.60;;;;;;10380129;28;20639;-67
2022/11/10 17:02:00;;;;;;;5.97;5.37;;;15.10;41.40;;;;;;10379042;28;20217;-67
2022/11/10 17:07:03;;;;;;;11.47;9.10;;;15.00;41.60;;;;;;10382155;28;20221;-67
2022/11/10 17:12:11;;;;;;;8.67;7.20;;;15.00;41.50;;;;;;10379162;28;20696;-67
2022/11/10 17:17:17;;;;;;;5.27;4.60;;;14.90;41.10;;;;;;10381440;28;20233;-73
2022/11/10 17:22:22;;;;;;;7.57;6.60;;;14.90;41.10;;;;;;10379403;28;20650;-69
2022/11/10 17:27:26;;;;;;;11.53;10.43;;;14.80;41.00;;;;;;10378993;28;20222;-74
2022/11/10 17:32:30;;;;;;;11.33;10.13;;;14.70;40.90;;;;;;10381585;28;20740;-67
2022/11/10 17:37:55;;;;;;;22.40;17.23;;;14.60;40.90;;;;;;10373960;28;20280;-68
2022/11/10 17:42:59;;;;;;;15.60;11.87;;;14.50;40.80;;;;;;10379248;28;20218;-68
2022/11/10 17:48:02;;;;;;;9.97;7.50;;;14.40;40.70;;;;;;10376021;28;20942;-69
2022/11/10 17:53:15;;;;;;;8.23;7.30;;;14.20;40.70;;;;;;10377330;28;20257;-73
2022/11/10 17:58:20;;;;;;;8.93;7.70;;;14.10;40.50;;;;;;10378432;28;20229;-73
2022/11/10 18:03:23;;;;;;;13.37;11.47;;;14.00;40.90;;;;;;10374492;28;20244;-73
2022/11/10 18:08:27;;;;;;;10.60;9.60;;;13.90;40.80;;;;;;10376497;28;20854;-69
2022/11/10 18:13:31;;;;;;;12.73;11.43;;;13.80;41.00;;;;;;10373581;28;20705;-73
2022/11/10 18:18:35;;;;;;;9.70;8.70;;;13.80;40.90;;;;;;10373618;28;20272;-73
2022/11/10 18:23:38;;;;;;;9.53;8.53;;;13.70;40.90;;;;;;10377276;28;20230;-69
2022/11/10 18:28:47;;;;;;;9.00;6.47;;;13.70;41.00;;;;;;10375300;28;20707;-69
2022/11/10 18:33:53;;;;;;;6.00;5.40;;;13.60;40.80;;;;;;10374967;28;20238;-69
2022/11/10 18:38:56;;;;;;;6.43;5.53;;;13.50;40.50;;;;;;10384501;28;20241;-69
2022/11/10 18:44:01;;;;;;;9.20;6.30;;;13.30;40.80;;;;;;10384691;28;20237;-69
2022/11/10 18:49:04;;;;;;;6.87;5.63;;;13.20;40.90;;;;;;10377528;28;21919;-73
2022/11/10 18:54:08;;;;;;;9.93;8.13;;;13.10;41.10;;;;;;10385512;28;20245;-68
2022/11/10 18:59:13;;;;;;;11.23;8.60;;;13.00;41.10;;;;;;10379597;28;20276;-68
2022/11/10 19:04:16;;;;;;;9.53;8.07;;;12.90;41.20;;;;;;10380085;28;20589;-73
2022/11/10 19:09:20;;;;;;;8.30;7.50;;;12.90;41.20;;;;;;10378654;28;20229;-73
2022/11/10 19:14:24;;;;;;;7.17;6.47;;;12.80;41.20;;;;;;10377589;28;20230;-73
2022/11/10 19:19:27;;;;;;;6.90;6.20;;;12.80;41.10;;;;;;10375119;28;20222;-73
2022/11/10 19:24:31;;;;;;;9.27;8.47;;;12.70;41.10;;;;;;10381614;28;20668;-73
2022/11/10 19:29:55;;;;;;;7.90;7.20;;;12.70;41.00;;;;;;10380963;28;20301;-73
2022/11/10 19:34:59;;;;;;;6.90;6.30;;;12.60;41.00;;;;;;10387101;28;20228;-73
2022/11/10 19:40:02;;;;;;;9.63;7.10;;;12.50;41.00;;;;;;10383224;28;20221;-70
2022/11/10 19:45:08;;;;;;;8.17;7.00;;;12.50;41.20;;;;;;10385867;28;20226;-73
2022/11/10 19:50:12;;;;;;;6.93;6.27;;;12.50;41.30;;;;;;10377534;28;20222;-73
2022/11/10 19:55:15;;;;;;;6.60;6.00;;;12.40;41.20;;;;;;10383307;28;20242;-73
2022/11/10 20:00:19;;;;;;;6.77;6.07;;;12.40;41.20;;;;;;10378974;28;20574;-73
2022/11/10 20:05:23;;;;;;;6.50;5.87;;;12.30;40.90;;;;;;10375541;28;20237;-73
2022/11/10 20:10:26;;;;;;;6.57;5.70;;;12.30;41.00;;;;;;10382250;28;20226;-73
2022/11/10 20:15:30;;;;;;;6.97;6.27;;;12.20;41.00;;;;;;10378065;28;20234;-73
2022/11/10 20:20:34;;;;;;;6.40;5.90;;;12.20;41.00;;;;;;10377348;28;20732;-73
2022/11/10 20:25:38;;;;;;;6.33;5.73;;;12.10;41.00;;;;;;10378764;28;20236;-73
2022/11/10 20:30:44;;;;;;;6.63;5.80;;;12.00;41.00;;;;;;10384779;28;20225;-74
2022/11/10 20:35:47;;;;;;;6.67;6.00;;;12.00;41.10;;;;;;10378066;28;20236;-73
2022/11/10 20:40:50;;;;;;;6.37;5.57;;;12.00;41.10;;;;;;10385402;28;20236;-73
2022/11/10 20:45:55;;;;;;;11.83;10.43;;;11.90;41.10;;;;;;10377849;28;20226;-73
2022/11/10 20:50:59;;;;;;;10.70;9.70;;;11.90;40.80;;;;;;10377195;28;20240;-68
2022/11/10 20:56:03;;;;;;;9.27;8.27;;;11.70;40.60;;;;;;10379523;28;20663;-70
2022/11/10 21:01:10;;;;;;;6.90;6.30;;;11.70;40.90;;;;;;10377532;28;20229;-68
2022/11/10 21:06:13;;;;;;;8.10;7.30;;;11.60;41.20;;;;;;10377714;28;20222;-69
2022/11/10 21:12:48;;;;;;;8.40;7.30;;;11.50;41.30;;;;;;10381722;28;20225;-69
2022/11/10 21:16:42;;;;;;;10.93;7.70;;;11.40;41.20;;;;;;10374879;28;20237;-69
2022/11/10 21:21:45;;;;;;;6.93;6.33;;;11.30;41.80;;;;;;10365365;28;20276;-69
2022/11/10 21:26:48;;;;;;;5.80;5.30;;;11.30;41.10;;;;;;10365397;28;20308;-73
2022/11/10 21:31:53;;;;;;;7.13;6.30;;;11.30;41.10;;;;;;10366000;28;20226;-73
2022/11/10 21:36:56;;;;;;;6.53;5.93;;;11.20;41.00;;;;;;10363667;28;20241;-69
2022/11/10 21:41:59;;;;;;;7.20;6.50;;;11.20;41.00;;;;;;10366810;28;20717;-69
2022/11/10 21:47:04;;;;;;;7.27;6.47;;;11.20;41.00;;;;;;10363268;28;20710;-69
2022/11/10 21:52:08;;;;;;;6.80;6.20;;;11.10;40.90;;;;;;10369319;28;20706;-69
2022/11/10 21:57:11;;;;;;;6.47;5.93;;;11.10;40.90;;;;;;10371754;28;20222;-69
2022/11/10 22:02:16;;;;;;;7.23;6.50;;;11.00;40.80;;;;;;10368200;28;20230;-69
2022/11/10 22:07:25;;;;;;;9.13;6.60;;;11.00;40.80;;;;;;10369993;28;20256;-69
2022/11/10 22:23:11;;;;;;;7.90;6.60;;;10.80;40.60;;;;;;10385477;28;20225;-69
2022/11/10 22:28:14;;;;;;;6.13;5.53;;;10.80;40.60;;;;;;10385576;28;20611;-69
2022/11/10 22:33:27;;;;;;;5.57;5.00;;;10.80;40.60;;;;;;10381244;28;20229;-67
2022/11/10 22:38:33;;;;;;;5.97;5.37;;;10.70;40.50;;;;;;10384060;28;20745;-68
2022/11/10 22:48:58;;;;;;;5.30;4.90;;;10.50;40.50;;;;;;10387099;28;20222;-73
2022/11/10 22:54:02;;;;;;;5.50;5.00;;;10.40;40.30;;;;;;10380006;28;20230;-73
2022/11/10 22:59:05;;;;;;;5.50;5.00;;;10.40;40.70;;;;;;10387285;28;20222;-73
2022/11/10 23:04:11;;;;;;;5.13;4.67;;;10.30;40.80;;;;;;10383390;28;20230;-73
2022/11/10 23:09:14;;;;;;;5.37;4.63;;;10.30;40.90;;;;;;10386093;28;20570;-73
2022/11/10 23:14:17;;;;;;;5.97;5.37;;;10.30;41.00;;;;;;10384282;28;20714;-73
2022/11/10 23:19:21;;;;;;;5.57;4.90;;;10.20;40.90;;;;;;10388480;28;20249;-73
2022/11/10 23:24:24;;;;;;;6.50;5.33;;;10.20;40.80;;;;;;10377266;28;20714;-73
2022/11/10 23:29:28;;;;;;;5.13;4.73;;;10.20;40.50;;;;;;10387531;28;20229;-73
2022/11/10 23:34:32;;;;;;;5.30;4.90;;;10.10;40.70;;;;;;10377804;28;20657;-73
2022/11/10 23:39:35;;;;;;;5.33;4.60;;;10.00;40.80;;;;;;10381255;28;20611;-73
2022/11/10 23:44:38;;;;;;;5.37;4.87;;;10.00;40.70;;;;;;10383969;28;20225;-73
2022/11/10 23:49:43;;;;;;;4.90;4.50;;;10.00;40.80;;;;;;10383389;28;20240;-73
2022/11/10 23:54:46;;;;;;;6.83;4.77;;;9.90;41.70;;;;;;10381094;28;20226;-73
2022/11/10 23:59:49;;;;;;;5.00;4.60;;;9.90;41.50;;;;;;10380642;28;20713;-74
